Time;durP1;ratioP1;P1;durP2;ratioP2;P2;SDS_P1;SDS_P2;PMS_P1;PMS_P2;Temp;Humidity;BMP_temperature;BMP_pressure;BME280_temperature;BME280_humidity;BME280_pressure;Samples;Min_cycle;Max_cycle;Signal;HPM_P1;HPM_P2
2021/11/23 00:00:06;;;;;;;19.73;11.27;;;;;;;-1.05;97.83;100670.72;5042695;28;20028;-64
2021/11/23 00:02:32;;;;;;;26.30;11.88;;;;;;;-1.01;98.06;100658.97;5043421;28;20021;-65
2021/11/23 00:04:57;;;;;;;27.63;13.68;;;;;;;-0.81;98.29;100662.50;5042175;28;20056;-63
2021/11/23 00:07:23;;;;;;;20.73;11.77;;;;;;;-0.88;97.23;100668.28;5042864;28;20052;-64
2021/11/23 00:09:48;;;;;;;16.70;10.48;;;;;;;-0.98;97.45;100674.50;5043698;28;20455;-64
2021/11/23 00:12:14;;;;;;;22.27;11.10;;;;;;;-1.02;98.41;100671.31;5042826;28;20041;-63
2021/11/23 00:14:39;;;;;;;19.30;11.65;;;;;;;-1.15;98.46;100663.63;5043980;28;20405;-64
2021/11/23 00:17:04;;;;;;;27.08;13.43;;;;;;;-0.99;98.82;100667.56;5042970;28;20187;-63
2021/11/23 00:19:30;;;;;;;21.75;11.68;;;;;;;-0.93;97.88;100667.03;5041722;28;20036;-63
2021/11/23 00:21:55;;;;;;;22.67;12.82;;;;;;;-0.95;98.04;100664.56;5042157;28;20037;-64
2021/11/23 00:24:21;;;;;;;18.92;11.80;;;;;;;-0.94;98.26;100668.00;5041198;28;20851;-64
2021/11/23 00:26:46;;;;;;;22.40;11.93;;;;;;;-0.95;98.93;100667.19;5037156;28;20147;-64
2021/11/23 00:29:15;;;;;;;19.45;11.60;;;;;;;-1.24;98.26;100667.06;5042646;28;20407;-64
2021/11/23 00:31:40;;;;;;;20.48;11.55;;;;;;;-1.26;98.76;100674.22;5042920;28;20133;-64
2021/11/23 00:34:06;;;;;;;22.10;10.98;;;;;;;-1.48;98.12;100669.13;5043242;28;20029;-64
2021/11/23 00:36:32;;;;;;;20.60;12.38;;;;;;;-1.54;99.01;100666.06;5042336;28;20096;-64
2021/11/23 00:38:57;;;;;;;23.70;12.25;;;;;;;-1.50;100.00;100665.78;5042766;28;20026;-64
2021/11/23 00:41:23;;;;;;;26.67;14.50;;;;;;;-1.19;100.00;100664.03;5042697;28;20234;-64
2021/11/23 00:43:49;;;;;;;22.55;13.55;;;;;;;-1.11;100.00;100667.66;5042768;28;20036;-64
2021/11/23 00:46:14;;;;;;;26.17;13.23;;;;;;;-1.18;99.66;100661.25;5042579;28;20065;-64
2021/11/23 00:48:40;;;;;;;26.23;15.25;;;;;;;-0.95;100.00;100661.06;5042983;28;20115;-64
2021/11/23 00:51:05;;;;;;;21.70;12.48;;;;;;;-1.06;99.33;100663.81;5038379;28;20077;-64
2021/11/23 00:53:33;;;;;;;48.35;17.27;;;;;;;-1.43;97.92;100665.13;5038988;28;20036;-64
2021/11/23 00:56:01;;;;;;;72.78;22.38;;;;;;;-1.61;97.71;100662.25;5042581;28;20067;-64
2021/11/23 00:58:27;;;;;;;28.42;13.57;;;;;;;-1.87;97.51;100658.34;5042381;28;20115;-65
2021/11/23 01:00:52;;;;;;;28.80;14.95;;;;;;;-1.99;98.67;100663.66;5041998;28;20048;-64
2021/11/23 01:03:18;;;;;;;24.55;13.07;;;;;;;-2.08;99.14;100660.94;5042570;28;20041;-64
2021/11/23 01:05:47;;;;;;;24.73;13.10;;;;;;;-2.38;99.20;100655.44;5040826;28;20048;-64
2021/11/23 01:08:16;;;;;;;25.58;13.38;;;;;;;-2.29;100.00;100653.03;5042474;28;20064;-65
2021/11/23 01:10:42;;;;;;;25.58;12.75;;;;;;;-2.17;100.00;100649.41;5041884;28;20049;-65
2021/11/23 01:13:08;;;;;;;21.88;13.02;;;;;;;-2.12;100.00;100652.50;5043106;28;20415;-64
2021/11/23 01:15:33;;;;;;;23.95;12.65;;;;;;;-2.01;100.00;100641.91;5039829;28;20084;-64
2021/11/23 01:17:59;;;;;;;23.73;13.13;;;;;;;-2.18;100.00;100655.59;5042780;28;20037;-64
2021/11/23 01:20:25;;;;;;;24.25;13.05;;;;;;;-2.29;100.00;100658.28;5041578;28;20052;-64
2021/11/23 01:22:51;;;;;;;26.83;13.98;;;;;;;-2.30;100.00;100656.59;5039165;28;20033;-64
2021/11/23 01:25:17;;;;;;;21.27;12.48;;;;;;;-2.40;100.00;100657.38;5040758;28;20067;-63
2021/11/23 01:27:42;;;;;;;29.00;13.88;;;;;;;-2.25;100.00;100649.19;5040974;28;20472;-64
2021/11/23 01:30:09;;;;;;;29.33;14.95;;;;;;;-2.02;100.00;100649.91;5040985;28;20029;-63
2021/11/23 01:32:34;;;;;;;23.33;11.88;;;;;;;-1.87;100.00;100647.81;5037647;28;20024;-64
2021/11/23 01:35:00;;;;;;;26.27;12.73;;;;;;;-1.85;100.00;100648.53;5038737;28;20033;-64
2021/11/23 01:37:26;;;;;;;23.13;12.40;;;;;;;-1.84;100.00;100647.59;5040773;28;20492;-64
2021/11/23 01:39:51;;;;;;;25.27;13.95;;;;;;;-1.81;100.00;100642.06;5039182;28;20153;-64
2021/11/23 01:42:17;;;;;;;27.75;13.52;;;;;;;-2.05;100.00;100645.75;5060041;28;20044;-64
2021/11/23 01:44:42;;;;;;;43.83;16.38;;;;;;;-2.19;100.00;100656.59;5061431;28;20592;-64
2021/11/23 01:47:08;;;;;;;49.88;15.05;;;;;;;-2.65;100.00;100645.34;5058409;28;20067;-64
2021/11/23 01:49:33;;;;;;;23.40;11.85;;;;;;;-2.23;100.00;100642.84;5061232;28;20036;-64
2021/11/23 01:51:59;;;;;;;26.63;14.90;;;;;;;-1.85;100.00;100651.16;5061005;28;20102;-64
2021/11/23 01:54:24;;;;;;;24.15;13.18;;;;;;;-1.87;100.00;100647.81;5060503;28;20024;-64
2021/11/23 01:56:50;;;;;;;35.10;14.77;;;;;;;-2.09;100.00;100657.50;5044244;28;20079;-64
2021/11/23 01:59:15;;;;;;;30.55;14.27;;;;;;;-2.38;100.00;100660.69;5040426;28;20094;-64
2021/11/23 02:01:41;;;;;;;23.67;13.38;;;;;;;-2.28;100.00;100665.19;5040922;28;20115;-64
2021/11/23 02:04:08;;;;;;;27.58;14.45;;;;;;;-2.17;100.00;100662.56;5038823;28;20263;-64
2021/11/23 02:06:33;;;;;;;29.70;15.68;;;;;;;-1.96;100.00;100655.50;5039270;28;20084;-64
2021/11/23 02:08:59;;;;;;;29.70;15.98;;;;;;;-2.17;100.00;100659.91;5041087;28;20025;-64
2021/11/23 02:11:25;;;;;;;32.35;15.55;;;;;;;-2.13;100.00;100663.94;5041095;28;20529;-63
2021/11/23 02:13:51;;;;;;;36.22;18.25;;;;;;;-2.23;100.00;100657.78;5041705;28;20033;-64
2021/11/23 02:16:16;;;;;;;28.75;15.07;;;;;;;-2.21;100.00;100663.75;5039005;28;20048;-64
2021/11/23 02:18:42;;;;;;;27.65;13.98;;;;;;;-2.42;100.00;100667.16;5041416;28;20028;-64
2021/11/23 02:21:07;;;;;;;27.48;14.85;;;;;;;-2.57;100.00;100671.00;5023282;28;20644;-64
2021/11/23 02:23:33;;;;;;;23.45;13.80;;;;;;;-2.23;100.00;100669.13;5040811;28;20212;-65
2021/11/23 02:25:59;;;;;;;32.05;14.05;;;;;;;-1.66;100.00;100668.88;5033621;28;20037;-64
2021/11/23 02:28:24;;;;;;;41.53;16.83;;;;;;;-2.17;100.00;100675.69;5040152;28;20214;-64
2021/11/23 02:30:52;;;;;;;36.83;18.27;;;;;;;-2.23;100.00;100660.41;5040480;28;20128;-64
2021/11/23 02:33:19;;;;;;;34.65;16.50;;;;;;;-2.14;100.00;100666.72;5040679;28;20397;-64
2021/11/23 02:35:45;;;;;;;36.00;16.55;;;;;;;-2.30;100.00;100664.47;5032888;28;20071;-63
2021/11/23 02:38:11;;;;;;;32.78;17.83;;;;;;;-2.41;100.00;100665.34;5039561;28;20589;-64
2021/11/23 02:40:36;;;;;;;45.45;20.45;;;;;;;-2.04;100.00;100663.19;5039772;28;20106;-63
2021/11/23 02:43:02;;;;;;;47.15;18.85;;;;;;;-2.11;100.00;100663.84;5040547;28;20025;-64
2021/11/23 02:45:28;;;;;;;56.30;21.95;;;;;;;-2.17;100.00;100670.44;5040008;28;20045;-63
2021/11/23 02:47:54;;;;;;;53.58;23.08;;;;;;;-2.15;100.00;100660.59;5040889;28;20025;-64
2021/11/23 02:50:20;;;;;;;51.90;23.48;;;;;;;-2.00;100.00;100654.13;5036456;28;20036;-63
2021/11/23 02:52:48;;;;;;;57.58;23.23;;;;;;;-1.80;100.00;100659.50;5036726;28;20431;-64
2021/11/23 02:55:14;;;;;;;54.88;22.80;;;;;;;-2.25;100.00;100654.44;5031302;28;20028;-63
2021/11/23 02:57:39;;;;;;;63.25;21.85;;;;;;;-2.61;100.00;100662.53;5033758;28;20060;-63
2021/11/23 03:00:17;;;;;;;36.42;17.85;;;;;;;-3.03;100.00;100651.00;5040469;28;20712;-63
2021/11/23 03:02:45;;;;;;;30.85;14.43;;;;;;;-3.19;100.00;100651.38;5037920;28;20047;-64
2021/11/23 03:05:11;;;;;;;34.30;15.55;;;;;;;-2.90;100.00;100646.47;5040098;28;20087;-63
2021/11/23 03:07:37;;;;;;;33.50;15.35;;;;;;;-3.15;100.00;100651.97;5040521;28;20025;-64
2021/11/23 03:10:04;;;;;;;27.30;14.98;;;;;;;-3.05;100.00;100650.28;5040254;28;20124;-63
2021/11/23 03:12:30;;;;;;;34.67;17.25;;;;;;;-3.18;100.00;100654.84;5040881;28;20036;-64
2021/11/23 03:14:55;;;;;;;28.92;15.63;;;;;;;-3.45;100.00;100644.69;5040508;28;20509;-64
2021/11/23 03:17:21;;;;;;;33.42;16.73;;;;;;;-3.38;100.00;100649.34;5031750;28;20029;-64
2021/11/23 03:19:47;;;;;;;36.10;18.20;;;;;;;-3.22;100.00;100656.00;5038219;28;20107;-64
2021/11/23 03:22:13;;;;;;;37.50;16.83;;;;;;;-3.35;100.00;100662.19;5035283;28;20045;-64
2021/11/23 03:24:38;;;;;;;30.52;16.25;;;;;;;-3.39;100.00;100652.91;5040264;28;20036;-64
2021/11/23 03:27:04;;;;;;;29.02;14.23;;;;;;;-3.15;100.00;100655.41;5040479;28;20064;-64
2021/11/23 03:29:30;;;;;;;35.75;16.45;;;;;;;-2.93;100.00;100651.97;5041531;28;20528;-64
2021/11/23 03:31:55;;;;;;;34.38;16.83;;;;;;;-2.79;100.00;100655.31;5036099;28;20049;-63
2021/11/23 03:34:21;;;;;;;35.45;16.85;;;;;;;-2.79;100.00;100650.06;5037436;28;20354;-64
2021/11/23 03:36:46;;;;;;;30.00;15.73;;;;;;;-2.84;100.00;100648.63;5033229;28;20287;-63
2021/11/23 03:39:12;;;;;;;33.83;16.65;;;;;;;-2.94;100.00;100658.16;5039573;28;20106;-64
2021/11/23 03:41:38;;;;;;;34.20;16.33;;;;;;;-3.12;100.00;100646.47;5040069;28;20045;-64
2021/11/23 03:44:04;;;;;;;29.10;15.15;;;;;;;-3.38;100.00;100644.09;5026438;28;20083;-64
2021/11/23 03:46:29;;;;;;;28.58;14.82;;;;;;;-3.48;100.00;100632.63;5039484;28;20131;-64
2021/11/23 03:48:55;;;;;;;29.40;16.15;;;;;;;-3.20;100.00;100630.50;5040668;28;20368;-64
2021/11/23 03:51:20;;;;;;;35.85;17.17;;;;;;;-3.11;100.00;100624.56;5039391;28;20049;-64
2021/11/23 03:53:46;;;;;;;45.45;18.17;;;;;;;-2.96;100.00;100622.53;5040238;28;20479;-64
2021/11/23 03:56:13;;;;;;;36.58;16.23;;;;;;;-3.10;100.00;100623.59;5039955;28;20486;-64
2021/11/23 03:58:41;;;;;;;32.47;15.02;;;;;;;-3.04;100.00;100625.75;5043148;28;20108;-64
2021/11/23 04:01:07;;;;;;;27.33;14.27;;;;;;;-3.84;100.00;100626.63;5042445;28;20510;-64
2021/11/23 04:03:34;;;;;;;30.40;13.85;;;;;;;-3.98;100.00;100614.56;5021521;28;20072;-64
2021/11/23 04:06:00;;;;;;;33.65;15.82;;;;;;;-3.66;100.00;100615.72;5035129;28;20087;-63
2021/11/23 04:08:26;;;;;;;38.40;17.58;;;;;;;-3.35;100.00;100607.13;5040284;28;20183;-64
2021/11/23 04:10:51;;;;;;;32.97;15.85;;;;;;;-3.48;100.00;100612.50;5041410;28;20225;-63
2021/11/23 04:13:18;;;;;;;35.47;16.65;;;;;;;-3.70;100.00;100602.81;5039408;28;20029;-63
2021/11/23 04:15:44;;;;;;;39.28;17.25;;;;;;;-3.16;100.00;100605.72;5037544;28;20041;-63
2021/11/23 04:18:10;;;;;;;43.75;18.27;;;;;;;-3.31;100.00;100607.75;5042070;28;20074;-63
2021/11/23 04:20:35;;;;;;;48.08;19.55;;;;;;;-3.34;100.00;100614.06;5041969;28;20415;-62
2021/11/23 04:23:01;;;;;;;42.10;17.58;;;;;;;-3.69;100.00;100608.91;5043573;28;20116;-64
2021/11/23 04:25:27;;;;;;;41.70;17.80;;;;;;;-3.81;100.00;100615.09;5038556;28;20460;-65
2021/11/23 04:27:52;;;;;;;36.97;16.85;;;;;;;-3.78;100.00;100614.84;5042872;28;20079;-64
2021/11/23 04:30:18;;;;;;;38.55;18.30;;;;;;;-3.74;100.00;100622.38;5041536;28;20534;-63
2021/11/23 04:32:44;;;;;;;33.28;16.15;;;;;;;-3.74;100.00;100627.59;5041249;28;20446;-65
2021/11/23 04:35:10;;;;;;;40.38;17.48;;;;;;;-3.78;100.00;100627.94;5039416;28;20028;-64
2021/11/23 04:37:35;;;;;;;45.50;17.13;;;;;;;-3.69;100.00;100629.88;5042364;28;20025;-65
2021/11/23 04:40:03;;;;;;;35.92;16.05;;;;;;;-3.71;100.00;100632.59;5041606;28;20133;-64
2021/11/23 04:42:28;;;;;;;34.60;16.45;;;;;;;-3.75;100.00;100630.34;5043136;28;20037;-65
2021/11/23 04:44:54;;;;;;;30.88;16.08;;;;;;;-3.83;100.00;100636.16;5043287;28;20029;-65
2021/11/23 04:47:19;;;;;;;37.03;17.73;;;;;;;-3.69;100.00;100641.19;5042715;28;20581;-64
2021/11/23 04:49:44;;;;;;;51.42;17.98;;;;;;;-3.69;100.00;100651.69;5042600;28;20021;-65
2021/11/23 04:52:10;;;;;;;54.92;19.42;;;;;;;-3.58;100.00;100647.41;5042057;28;20036;-65
2021/11/23 04:54:36;;;;;;;50.03;18.02;;;;;;;-3.61;100.00;100652.88;5042585;28;20376;-65
2021/11/23 04:57:01;;;;;;;51.22;20.63;;;;;;;-3.66;100.00;100660.25;5028024;28;20032;-65
2021/11/23 04:59:27;;;;;;;99.75;18.88;;;;;;;-3.55;100.00;100657.66;5042770;28;20055;-65
2021/11/23 05:01:52;;;;;;;46.72;18.02;;;;;;;-3.49;100.00;100657.19;5038946;28;20402;-64
2021/11/23 05:04:18;;;;;;;51.72;19.23;;;;;;;-3.53;100.00;100661.00;5042241;28;20033;-65
2021/11/23 05:06:43;;;;;;;98.82;20.02;;;;;;;-3.46;100.00;100659.56;5041904;28;20440;-65
2021/11/23 05:09:09;;;;;;;67.55;18.50;;;;;;;-3.45;100.00;100658.63;5042245;28;20025;-65
2021/11/23 05:11:36;;;;;;;111.50;17.88;;;;;;;-3.34;100.00;100649.94;5036700;28;20114;-65
2021/11/23 05:14:02;;;;;;;126.90;20.33;;;;;;;-3.41;100.00;100649.56;5042522;28;20040;-64
2021/11/23 05:16:28;;;;;;;133.55;19.58;;;;;;;-3.20;100.00;100644.44;5041766;28;20044;-65
2021/11/23 05:18:53;;;;;;;147.32;18.83;;;;;;;-3.33;100.00;100646.34;5042217;28;20032;-65
2021/11/23 05:21:19;;;;;;;188.73;20.02;;;;;;;-2.90;100.00;100654.34;5041255;28;20037;-65
2021/11/23 05:23:44;;;;;;;151.20;18.02;;;;;;;-3.07;100.00;100657.44;5037364;28;20151;-64
2021/11/23 05:26:10;;;;;;;140.20;17.95;;;;;;;-3.30;100.00;100660.06;5018797;28;20037;-65
2021/11/23 05:28:35;;;;;;;89.68;17.50;;;;;;;-3.28;100.00;100660.78;5040833;28;20112;-65
2021/11/23 05:31:01;;;;;;;119.03;16.25;;;;;;;-3.09;100.00;100656.75;5038877;28;20045;-65
2021/11/23 05:33:27;;;;;;;113.28;17.95;;;;;;;-3.30;100.00;100657.44;5042136;28;20391;-65
2021/11/23 05:35:53;;;;;;;106.05;16.73;;;;;;;-3.42;100.00;100662.78;5041443;28;20521;-64
2021/11/23 05:38:19;;;;;;;91.28;19.00;;;;;;;-3.37;100.00;100661.50;5042409;28;20033;-65
2021/11/23 05:40:45;;;;;;;62.13;16.17;;;;;;;-3.45;100.00;100658.63;5041542;28;20044;-65
2021/11/23 05:43:11;;;;;;;68.13;16.20;;;;;;;-3.53;100.00;100661.00;5041215;28;20021;-65
2021/11/23 05:45:37;;;;;;;88.63;16.52;;;;;;;-3.52;100.00;100663.50;5039001;28;20041;-65
2021/11/23 05:48:03;;;;;;;84.85;15.60;;;;;;;-3.55;100.00;100657.66;5039482;28;20048;-65
2021/11/23 05:50:29;;;;;;;87.13;15.48;;;;;;;-3.51;100.00;100659.09;5040530;28;20049;-64
2021/11/23 05:52:54;;;;;;;72.30;16.10;;;;;;;-3.61;100.00;100652.88;5042056;28;20039;-65
2021/11/23 05:55:20;;;;;;;58.72;16.63;;;;;;;-3.57;100.00;100659.53;5038565;28;21791;-65
2021/11/23 05:57:45;;;;;;;46.63;14.93;;;;;;;-3.59;100.00;100664.09;5040303;28;20531;-65
2021/11/23 06:00:11;;;;;;;41.65;15.60;;;;;;;-3.70;100.00;100652.59;5041543;28;20112;-64
2021/11/23 06:02:37;;;;;;;49.05;14.45;;;;;;;-3.76;100.00;100658.31;5039394;28;20072;-65
2021/11/23 06:05:03;;;;;;;67.07;15.50;;;;;;;-3.85;100.00;100656.38;5040810;28;20610;-64
2021/11/23 06:07:28;;;;;;;87.25;16.27;;;;;;;-3.80;100.00;100650.81;5040527;28;20412;-64
2021/11/23 06:09:54;;;;;;;64.57;14.82;;;;;;;-3.81;100.00;100668.31;5041160;28;20246;-65
2021/11/23 06:12:19;;;;;;;71.57;13.63;;;;;;;-3.86;100.00;100657.34;5041194;28;20475;-65
2021/11/23 06:14:45;;;;;;;60.80;14.65;;;;;;;-3.81;100.00;100662.25;5039953;28;20040;-65
2021/11/23 06:17:12;;;;;;;81.55;15.00;;;;;;;-3.87;100.00;100655.66;5040169;28;20085;-64
2021/11/23 06:19:38;;;;;;;72.32;15.45;;;;;;;-3.94;100.00;100654.47;5041914;28;20503;-65
2021/11/23 06:22:04;;;;;;;65.25;14.98;;;;;;;-4.08;100.00;100657.28;5040829;28;20477;-65
2021/11/23 06:24:30;;;;;;;51.33;14.27;;;;;;;-4.15;100.00;100655.09;5040522;28;20450;-65
2021/11/23 06:26:55;;;;;;;48.95;13.73;;;;;;;-4.24;100.00;100655.78;5033615;28;20029;-65
2021/11/23 06:29:21;;;;;;;41.03;14.27;;;;;;;-4.09;100.00;100655.56;5028657;28;20057;-65
2021/11/23 06:31:46;;;;;;;65.15;14.60;;;;;;;-4.27;100.00;100658.59;5038080;28;20091;-65
2021/11/23 06:34:12;;;;;;;44.72;13.48;;;;;;;-4.24;100.00;100666.25;5040162;28;20039;-65
2021/11/23 06:36:37;;;;;;;35.22;13.70;;;;;;;-4.28;100.00;100659.56;5034289;28;20052;-64
2021/11/23 06:39:04;;;;;;;37.60;14.05;;;;;;;-4.26;100.00;100655.06;5037153;28;20074;-64
2021/11/23 06:41:30;;;;;;;32.55;14.07;;;;;;;-4.20;100.00;100667.69;5040590;28;20051;-65
2021/11/23 06:43:55;;;;;;;47.75;15.23;;;;;;;-3.86;100.00;100669.63;5030606;28;20173;-64
2021/11/23 06:46:22;;;;;;;60.97;15.60;;;;;;;-4.07;100.00;100665.00;5037534;28;20402;-64
2021/11/23 06:48:47;;;;;;;74.93;15.32;;;;;;;-4.19;100.00;100674.59;5035699;28;20051;-64
2021/11/23 06:51:13;;;;;;;252.05;16.48;;;;;;;-4.34;100.00;100671.31;5037602;28;20589;-64
2021/11/23 06:53:38;;;;;;;64.90;15.13;;;;;;;-4.29;100.00;100681.47;5033924;28;20140;-64
2021/11/23 06:56:04;;;;;;;182.70;15.65;;;;;;;-4.32;100.00;100689.50;5039221;28;20395;-64
2021/11/23 06:58:30;;;;;;;181.55;15.98;;;;;;;-4.32;100.00;100694.75;5040290;28;20064;-64
2021/11/23 07:00:55;;;;;;;145.38;14.65;;;;;;;-4.25;100.00;100697.78;5040019;28;20063;-64
2021/11/23 07:03:21;;;;;;;90.88;14.48;;;;;;;-4.36;100.00;100702.00;5040596;28;20082;-64
2021/11/23 07:05:46;;;;;;;225.43;18.75;;;;;;;-4.35;100.00;100702.84;5038935;28;20033;-64
2021/11/23 07:08:12;;;;;;;142.73;17.20;;;;;;;-4.01;100.00;100697.78;5038587;28;20036;-64
2021/11/23 07:10:38;;;;;;;128.82;17.27;;;;;;;-4.14;100.00;100703.09;5033443;28;20601;-64
2021/11/23 07:13:04;;;;;;;97.40;18.73;;;;;;;-4.13;100.00;100705.56;5039017;28;20430;-64
2021/11/23 07:15:29;;;;;;;87.35;20.00;;;;;;;-4.08;100.00;100712.25;5036998;28;20340;-65
2021/11/23 07:17:55;;;;;;;62.97;18.33;;;;;;;-4.04;100.00;100705.84;5038068;28;20487;-64
2021/11/23 07:20:21;;;;;;;64.72;20.40;;;;;;;-4.01;100.00;100708.25;5021906;28;20327;-64
2021/11/23 07:22:46;;;;;;;49.05;20.58;;;;;;;-3.79;100.00;100710.97;5038850;28;20087;-64
2021/11/23 07:25:12;;;;;;;58.83;22.35;;;;;;;-3.62;100.00;100714.09;5038826;28;20037;-64
2021/11/23 07:27:38;;;;;;;54.00;21.20;;;;;;;-3.66;100.00;100721.38;5037335;28;20098;-63
2021/11/23 07:30:05;;;;;;;55.50;19.65;;;;;;;-3.72;100.00;100724.41;5039640;28;20064;-63
2021/11/23 07:32:31;;;;;;;48.92;19.73;;;;;;;-3.56;100.00;100734.63;5038934;28;21141;-63
2021/11/23 07:34:56;;;;;;;55.28;21.40;;;;;;;-3.57;100.00;100732.94;5041178;28;20024;-63
2021/11/23 07:37:25;;;;;;;94.90;19.98;;;;;;;-3.72;100.00;100727.91;5040309;28;20052;-64
2021/11/23 07:39:52;;;;;;;56.33;18.65;;;;;;;-3.59;100.00;100734.84;5043020;28;20474;-64
2021/11/23 07:42:17;;;;;;;71.20;20.55;;;;;;;-3.63;100.00;100741.25;5040662;28;20114;-64
2021/11/23 07:44:43;;;;;;;67.80;19.25;;;;;;;-3.47;100.00;100737.41;5038818;28;20048;-64
2021/11/23 07:47:08;;;;;;;57.88;20.00;;;;;;;-3.36;100.00;100730.50;5043794;28;20119;-63
2021/11/23 07:49:35;;;;;;;57.17;18.70;;;;;;;-3.33;100.00;100736.34;5041705;28;20522;-63
2021/11/23 07:52:00;;;;;;;89.03;20.77;;;;;;;-3.20;100.00;100735.41;5041346;28;20114;-63
2021/11/23 07:54:26;;;;;;;91.07;20.73;;;;;;;-3.44;100.00;100728.47;5043045;28;20033;-64
2021/11/23 07:56:51;;;;;;;75.88;19.48;;;;;;;-3.41;100.00;100717.75;5038827;28;20048;-63
2021/11/23 07:59:17;;;;;;;107.50;21.85;;;;;;;-3.14;100.00;100719.22;5045395;28;20112;-63
2021/11/23 08:01:42;;;;;;;75.60;27.25;;;;;;;-2.87;100.00;100721.47;5043514;28;20052;-65
2021/11/23 08:04:08;;;;;;;54.35;23.05;;;;;;;-2.79;100.00;100734.84;5039041;28;20120;-63
2021/11/23 08:06:33;;;;;;;62.40;23.98;;;;;;;-2.78;100.00;100730.44;5040524;28;20122;-65
2021/11/23 08:08:59;;;;;;;64.05;20.13;;;;;;;-2.71;100.00;100740.34;5040672;28;20442;-66
2021/11/23 08:11:25;;;;;;;68.72;18.90;;;;;;;-2.65;100.00;100739.84;5043616;28;20076;-64
2021/11/23 08:13:50;;;;;;;41.97;17.48;;;;;;;-2.49;100.00;100744.75;5044180;28;20240;-65
2021/11/23 08:16:16;;;;;;;45.85;17.10;;;;;;;-2.51;99.81;100746.66;5043685;28;20134;-65
2021/11/23 08:18:41;;;;;;;44.60;16.85;;;;;;;-2.47;99.37;100755.97;5043631;28;20373;-65
2021/11/23 08:21:07;;;;;;;41.35;15.90;;;;;;;-2.33;99.12;100754.03;5035520;28;20045;-64
2021/11/23 08:23:33;;;;;;;37.10;15.55;;;;;;;-2.31;97.96;100754.75;5044031;28;20048;-65
2021/11/23 08:25:59;;;;;;;43.13;14.65;;;;;;;-2.20;96.61;100768.72;5043696;28;20041;-65
2021/11/23 08:28:26;;;;;;;31.98;14.82;;;;;;;-2.04;95.89;100757.78;5044658;28;20521;-66
2021/11/23 08:30:52;;;;;;;43.88;13.85;;;;;;;-2.02;94.40;100753.25;5042856;28;20487;-65
2021/11/23 08:33:18;;;;;;;34.38;15.70;;;;;;;-1.45;94.02;100748.59;5026391;28;20056;-65
2021/11/23 08:35:43;;;;;;;29.13;14.75;;;;;;;-0.97;91.39;100752.50;5038286;28;20571;-65
2021/11/23 08:38:09;;;;;;;29.88;14.25;;;;;;;-0.67;89.59;100752.50;5041823;28;20025;-65
2021/11/23 08:40:37;;;;;;;28.00;13.88;;;;;;;-0.23;87.88;100746.94;5043342;28;20072;-65
2021/11/23 08:43:03;;;;;;;23.92;13.13;;;;;;;0.00;86.09;100747.56;5040341;28;20387;-65
2021/11/23 08:45:28;;;;;;;19.85;11.55;;;;;;;0.71;85.15;100747.28;5040785;28;20130;-65
2021/11/23 08:47:54;;;;;;;22.88;12.00;;;;;;;0.83;84.57;100748.78;5042692;28;20504;-65
2021/11/23 08:50:21;;;;;;;22.42;12.80;;;;;;;0.37;83.05;100754.78;5041219;28;20119;-65
2021/11/23 08:52:46;;;;;;;20.88;11.73;;;;;;;0.23;84.18;100755.22;5042390;28;20047;-65
2021/11/23 08:55:12;;;;;;;19.58;11.15;;;;;;;0.59;84.74;100759.78;5039458;28;20036;-65
2021/11/23 08:57:39;;;;;;;22.90;11.77;;;;;;;0.72;84.78;100750.72;5042554;28;20036;-65
2021/11/23 09:00:27;;;;;;;22.35;12.23;;;;;;;0.00;86.30;100763.38;5042797;28;20032;-64
2021/11/23 09:02:55;;;;;;;19.25;11.45;;;;;;;-0.35;88.95;100764.69;5042222;28;20063;-65
2021/11/23 09:05:22;;;;;;;21.48;11.30;;;;;;;1.05;84.14;100765.28;5036085;28;20138;-65
2021/11/23 09:07:47;;;;;;;20.92;12.10;;;;;;;0.95;82.36;100770.56;5043026;28;20479;-65
2021/11/23 09:10:18;;;;;;;18.02;11.07;;;;;;;1.25;82.70;100768.69;5042007;28;20128;-64
2021/11/23 09:12:44;;;;;;;19.15;11.50;;;;;;;1.43;79.65;100766.94;5043227;28;20032;-65
2021/11/23 09:15:09;;;;;;;18.80;11.50;;;;;;;1.76;79.18;100767.34;5053337;28;20091;-62
2021/11/23 09:17:35;;;;;;;30.05;12.18;;;;;;;1.91;79.68;100772.97;5043349;28;20065;-65
2021/11/23 09:20:00;;;;;;;19.73;12.05;;;;;;;1.99;78.33;100772.22;5039085;28;20037;-64
2021/11/23 09:22:27;;;;;;;23.02;12.98;;;;;;;2.75;78.22;100772.59;5043271;28;20472;-63
2021/11/23 09:24:52;;;;;;;27.65;12.02;;;;;;;2.16;76.99;100772.22;5043354;28;20114;-65
2021/11/23 09:27:18;;;;;;;18.95;12.40;;;;;;;2.57;77.55;100780.56;5042492;28;20572;-63
2021/11/23 09:29:44;;;;;;;22.40;12.02;;;;;;;2.63;76.34;100784.41;5042705;28;20051;-64
2021/11/23 09:32:12;;;;;;;21.60;12.10;;;;;;;2.30;76.21;100783.31;5042439;28;20122;-64
2021/11/23 09:34:38;;;;;;;24.20;14.10;;;;;;;1.84;78.94;100785.94;5034110;28;20063;-64
2021/11/23 09:37:04;;;;;;;24.55;13.57;;;;;;;2.35;76.46;100791.63;5040910;28;20032;-64
2021/11/23 09:39:29;;;;;;;25.17;13.50;;;;;;;2.58;77.23;100786.69;5042294;28;20029;-65
2021/11/23 09:41:55;;;;;;;22.92;13.85;;;;;;;2.94;74.44;100782.16;5042075;28;20102;-64
2021/11/23 09:44:20;;;;;;;36.42;19.35;;;;;;;3.80;71.39;100783.13;5026369;28;20427;-64
2021/11/23 09:46:46;;;;;;;43.08;21.30;;;;;;;2.83;75.07;100784.25;5039782;28;20069;-66
2021/11/23 09:49:11;;;;;;;27.05;15.25;;;;;;;2.97;75.68;100779.22;5041222;28;20503;-64
2021/11/23 09:51:37;;;;;;;28.75;17.65;;;;;;;3.26;74.40;100774.59;5039293;28;20048;-64
2021/11/23 09:54:05;;;;;;;26.33;14.57;;;;;;;3.59;73.13;100773.75;5043064;28;20031;-65
2021/11/23 09:56:31;;;;;;;26.00;14.85;;;;;;;3.83;73.61;100767.72;5041853;28;20051;-65
2021/11/23 09:58:57;;;;;;;24.52;14.98;;;;;;;3.90;73.31;100767.91;5042026;28;20025;-64
2021/11/23 10:01:28;;;;;;;29.17;16.67;;;;;;;3.98;73.79;100775.06;5041544;28;20094;-64
2021/11/23 10:03:54;;;;;;;35.97;19.27;;;;;;;3.13;74.78;100778.50;5039298;28;20047;-64
2021/11/23 10:06:22;;;;;;;28.00;17.10;;;;;;;3.40;74.12;100779.31;5039831;28;20040;-63
2021/11/23 10:08:48;;;;;;;38.28;18.85;;;;;;;3.31;75.09;100781.06;5041583;28;20514;-64
2021/11/23 10:11:26;;;;;;;39.03;23.33;;;;;;;4.16;72.34;100778.41;5039892;28;20535;-64
2021/11/23 10:13:59;;;;;;;33.42;18.10;;;;;;;4.22;72.46;100766.31;5036338;28;20065;-64
2021/11/23 10:16:25;;;;;;;34.90;18.77;;;;;;;4.49;72.20;100763.38;5040880;28;20033;-64
2021/11/23 10:18:51;;;;;;;34.13;19.60;;;;;;;4.39;70.91;100760.03;5040660;28;20044;-63
2021/11/23 10:21:19;;;;;;;35.10;19.73;;;;;;;4.00;71.94;100757.16;5041173;28;20036;-64
2021/11/23 10:23:50;;;;;;;35.45;20.23;;;;;;;3.73;73.77;100752.94;5042098;28;20037;-64
2021/11/23 10:26:26;;;;;;;38.90;19.42;;;;;;;3.67;73.19;100749.94;5041241;28;20033;-64
2021/11/23 10:28:55;;;;;;;35.85;19.63;;;;;;;3.33;76.02;100762.38;5025578;28;20029;-65
2021/11/23 10:31:22;;;;;;;35.17;18.50;;;;;;;4.18;72.94;100759.69;5040367;28;20047;-64
2021/11/23 10:34:08;;;;;;;30.65;16.90;;;;;;;4.16;72.63;100759.03;5040656;28;20039;-65
2021/11/23 10:36:38;;;;;;;35.78;19.15;;;;;;;3.99;74.66;100747.53;5041110;28;20572;-64
2021/11/23 10:39:14;;;;;;;38.92;21.90;;;;;;;4.56;72.31;100741.47;5041033;28;20430;-63
2021/11/23 10:41:41;;;;;;;33.42;18.65;;;;;;;5.22;71.44;100737.72;5040942;28;20143;-63
2021/11/23 10:44:19;;;;;;;36.15;18.45;;;;;;;5.99;68.32;100739.72;5038223;28;20036;-63
2021/11/23 10:46:58;;;;;;;33.25;19.05;;;;;;;4.86;70.91;100737.28;5035132;28;20052;-63
2021/11/23 10:49:27;;;;;;;46.53;23.83;;;;;;;4.56;71.73;100730.84;5041636;28;20047;-63
2021/11/23 10:51:53;;;;;;;44.28;26.13;;;;;;;3.98;74.50;100724.66;5040086;28;20049;-63
2021/11/23 10:54:19;;;;;;;41.58;22.73;;;;;;;3.93;73.93;100725.13;5041608;28;20036;-63
2021/11/23 10:56:57;;;;;;;36.15;18.65;;;;;;;4.69;74.40;100715.22;5039436;28;20156;-63
2021/11/23 10:59:23;;;;;;;32.03;18.70;;;;;;;4.83;71.70;100722.50;5041563;28;20510;-63